createdAt,value
2022-10-12T00:00:53.088Z,18.00
2022-10-12T00:03:21.909Z,17.90
2022-10-12T00:06:00.821Z,17.90
2022-10-12T00:08:29.237Z,17.90
2022-10-12T00:10:57.572Z,17.90
2022-10-12T00:13:26.061Z,17.90
2022-10-12T00:15:55.919Z,17.90
2022-10-12T00:18:24.329Z,17.90
2022-10-12T00:21:01.235Z,17.90
2022-10-12T00:23:30.684Z,17.90
2022-10-12T00:26:02.308Z,17.90
2022-10-12T00:28:30.761Z,17.90
2022-10-12T00:31:00.718Z,17.90
2022-10-12T00:33:29.227Z,17.80
2022-10-12T00:35:57.547Z,17.80
2022-10-12T00:38:25.885Z,17.80
2022-10-12T00:40:54.253Z,17.90
2022-10-12T00:43:30.613Z,17.90
2022-10-12T00:46:01.216Z,18.00
2022-10-12T00:48:29.699Z,18.00
2022-10-12T00:50:59.180Z,17.90
2022-10-12T00:53:29.071Z,17.90
2022-10-12T00:56:00.809Z,17.90
2022-10-12T00:58:31.475Z,17.90
2022-10-12T01:01:01.728Z,17.90
2022-10-12T01:03:30.253Z,17.90
2022-10-12T01:05:58.838Z,17.90
2022-10-12T01:08:27.333Z,17.90
2022-10-12T01:10:55.709Z,17.90
2022-10-12T01:13:24.146Z,17.90
2022-10-12T01:15:55.370Z,17.90
2022-10-12T01:18:28.665Z,17.90
2022-10-12T01:21:04.813Z,17.90
2022-10-12T01:23:50.839Z,17.90
2022-10-12T01:26:33.057Z,17.90
2022-10-12T01:29:07.885Z,18.00
2022-10-12T01:31:40.013Z,18.10
2022-10-12T01:34:11.006Z,18.10
2022-10-12T01:36:42.762Z,18.10
2022-10-12T01:39:14.433Z,18.10
2022-10-12T01:41:45.980Z,18.10
2022-10-12T01:44:20.675Z,18.10
2022-10-12T01:46:50.881Z,18.10
2022-10-12T01:49:20.447Z,18.10
2022-10-12T01:52:00.663Z,18.10
2022-10-12T01:54:36.443Z,18.00
2022-10-12T01:57:07.434Z,18.10
2022-10-12T01:59:40.801Z,18.00
2022-10-12T02:02:14.573Z,18.00
2022-10-12T02:04:46.017Z,18.00
2022-10-12T02:07:18.424Z,18.00
2022-10-12T02:09:48.638Z,17.90
2022-10-12T02:12:18.553Z,17.80
2022-10-12T02:14:47.975Z,17.80
2022-10-12T02:17:19.383Z,17.70
2022-10-12T02:19:49.324Z,17.70
2022-10-12T02:22:18.238Z,17.70
2022-10-12T02:24:48.500Z,17.80
2022-10-12T02:27:17.525Z,17.80
2022-10-12T02:29:47.820Z,17.80
2022-10-12T02:32:19.772Z,17.80
2022-10-12T02:34:51.740Z,17.80
2022-10-12T02:37:26.090Z,17.70
2022-10-12T02:39:55.482Z,17.70
2022-10-12T02:42:25.694Z,17.70
2022-10-12T02:44:55.077Z,17.60
2022-10-12T02:47:26.649Z,17.60
2022-10-12T02:49:56.287Z,17.70
2022-10-12T02:52:25.132Z,17.70
2022-10-12T02:54:53.661Z,17.60
2022-10-12T02:57:22.009Z,17.60
2022-10-12T02:59:50.369Z,17.60
2022-10-12T03:02:18.909Z,17.60
2022-10-12T03:04:48.725Z,17.50
2022-10-12T03:07:17.098Z,17.50
2022-10-12T03:09:45.509Z,17.60
2022-10-12T03:12:13.978Z,17.70
2022-10-12T03:14:42.421Z,17.70
2022-10-12T03:17:10.892Z,17.70
2022-10-12T03:19:39.951Z,17.70
2022-10-12T03:22:09.852Z,17.70
2022-10-12T03:24:38.218Z,17.70
2022-10-12T03:27:06.619Z,17.70
2022-10-12T03:29:35.018Z,17.70
2022-10-12T03:32:03.424Z,17.70
2022-10-12T03:34:31.747Z,17.70
2022-10-12T03:37:00.178Z,17.70
2022-10-12T03:39:29.926Z,17.60
2022-10-12T03:41:58.256Z,17.70
2022-10-12T03:44:26.617Z,17.60
2022-10-12T03:46:55.049Z,17.60
2022-10-12T03:49:23.418Z,17.60
2022-10-12T03:51:51.764Z,17.60
2022-10-12T03:54:20.185Z,17.50
2022-10-12T03:56:49.995Z,17.50
2022-10-12T03:59:18.357Z,17.40
2022-10-12T04:01:46.803Z,17.30
2022-10-12T04:04:15.338Z,17.30
2022-10-12T04:06:43.707Z,17.20
2022-10-12T04:09:12.151Z,17.20
2022-10-12T04:11:40.593Z,17.20
2022-10-12T04:14:10.491Z,17.20
2022-10-12T04:16:38.835Z,17.20
2022-10-12T04:19:07.222Z,17.10
2022-10-12T04:21:35.668Z,17.10
2022-10-12T04:24:04.138Z,17.20
2022-10-12T04:26:32.548Z,17.20
2022-10-12T04:29:00.875Z,17.10
2022-10-12T04:31:30.796Z,17.10
2022-10-12T04:33:59.128Z,17.10
2022-10-12T04:36:28.090Z,17.10
2022-10-12T04:39:00.785Z,17.20
2022-10-12T04:41:29.945Z,17.10
2022-10-12T04:43:58.337Z,17.10
2022-10-12T04:46:26.786Z,17.20
2022-10-12T04:48:56.578Z,17.20
2022-10-12T04:51:24.964Z,17.20
2022-10-12T04:53:53.370Z,17.20
2022-10-12T04:56:21.790Z,17.20
2022-10-12T04:58:50.156Z,17.20
2022-10-12T05:01:18.721Z,17.10
2022-10-12T05:03:47.263Z,17.10
2022-10-12T05:06:17.080Z,17.00
2022-10-12T05:08:45.362Z,17.00
2022-10-12T05:11:13.804Z,17.00
2022-10-12T05:13:42.195Z,17.00
2022-10-12T05:16:10.549Z,17.00
2022-10-12T05:18:38.981Z,17.10
2022-10-12T05:21:07.410Z,17.20
2022-10-12T05:23:37.258Z,17.20
2022-10-12T05:26:05.870Z,17.20
2022-10-12T05:28:39.833Z,17.30
2022-10-12T05:31:09.374Z,17.20
2022-10-12T05:33:37.745Z,17.20
2022-10-12T05:36:06.349Z,17.30
2022-10-12T05:38:34.759Z,17.30
2022-10-12T05:41:04.529Z,17.30
2022-10-12T05:43:32.970Z,17.20
2022-10-12T05:46:01.285Z,17.20
2022-10-12T05:48:29.653Z,17.20
2022-10-12T05:50:57.997Z,17.20
2022-10-12T05:53:26.441Z,17.20
2022-10-12T05:55:55.334Z,17.30
2022-10-12T05:58:25.790Z,17.40
2022-10-12T06:00:54.246Z,17.40
2022-10-12T06:03:26.145Z,17.50
2022-10-12T06:05:54.983Z,17.50
2022-10-12T06:08:23.349Z,17.60
2022-10-12T06:10:52.345Z,17.60
2022-10-12T06:13:20.766Z,17.60
2022-10-12T06:15:50.928Z,17.60
2022-10-12T06:18:19.625Z,17.60
2022-10-12T06:20:49.251Z,17.70
2022-10-12T06:23:17.734Z,17.70
2022-10-12T06:25:46.806Z,17.60
2022-10-12T06:28:15.355Z,17.60
2022-10-12T06:30:44.187Z,17.60
2022-10-12T06:33:13.960Z,17.60
2022-10-12T06:35:42.344Z,17.60
2022-10-12T06:38:10.710Z,17.50
2022-10-12T06:40:39.033Z,17.60
2022-10-12T06:43:07.453Z,17.60
2022-10-12T06:46:02.617Z,17.60
2022-10-12T06:48:32.387Z,17.70
2022-10-12T06:51:00.749Z,17.80
2022-10-12T06:53:31.232Z,17.80
2022-10-12T06:55:59.590Z,17.90
2022-10-12T06:58:28.083Z,18.00
2022-10-12T07:00:56.464Z,18.10
2022-10-12T07:03:24.793Z,18.10
2022-10-12T07:05:54.537Z,18.10
2022-10-12T07:08:22.941Z,18.20
2022-10-12T07:10:52.058Z,18.20
2022-10-12T07:13:22.376Z,18.30
2022-10-12T07:15:52.113Z,18.30
2022-10-12T07:18:20.534Z,18.30
2022-10-12T07:20:49.025Z,18.40
2022-10-12T07:23:19.162Z,18.50
2022-10-12T07:25:50.919Z,18.60
2022-10-12T07:28:19.635Z,18.60
2022-10-12T07:30:48.443Z,18.70
2022-10-12T07:33:17.182Z,18.80
2022-10-12T07:36:12.721Z,18.90
2022-10-12T07:38:45.322Z,18.90
2022-10-12T07:41:14.672Z,19.00
2022-10-12T07:43:43.550Z,19.10
2022-10-12T07:46:11.965Z,19.20
2022-10-12T07:48:45.644Z,19.30
2022-10-12T07:51:15.821Z,19.50
2022-10-12T07:53:45.872Z,19.70
2022-10-12T07:56:16.105Z,19.90
2022-10-12T07:58:44.643Z,20.10
2022-10-12T08:01:13.149Z,20.30
2022-10-12T08:03:41.905Z,20.60
2022-10-12T08:06:11.874Z,20.80
2022-10-12T08:08:40.688Z,21.00
2022-10-12T08:11:10.903Z,21.20
2022-10-12T08:13:39.440Z,21.40
2022-10-12T08:16:10.817Z,21.40
2022-10-12T08:18:39.193Z,21.60
2022-10-12T08:21:08.447Z,21.70
2022-10-12T08:23:37.323Z,21.80
2022-10-12T08:26:06.422Z,21.70
2022-10-12T08:28:37.054Z,21.80
2022-10-12T08:31:09.553Z,21.60
2022-10-12T08:33:38.094Z,21.60
2022-10-12T08:36:07.044Z,21.70
2022-10-12T08:38:35.484Z,21.50
2022-10-12T08:41:07.429Z,21.60
2022-10-12T08:43:44.702Z,21.80
2022-10-12T08:46:13.099Z,21.70
2022-10-12T08:48:46.703Z,21.50
2022-10-12T08:51:17.488Z,21.60
2022-10-12T08:53:49.313Z,21.60
2022-10-12T08:56:18.444Z,21.70
2022-10-12T08:58:49.150Z,21.70
2022-10-12T09:01:26.464Z,21.70
2022-10-12T09:03:59.789Z,21.70
2022-10-12T09:06:30.085Z,21.60
2022-10-12T09:09:02.603Z,21.70
2022-10-12T09:11:38.013Z,21.60
2022-10-12T09:14:09.568Z,21.60
2022-10-12T09:16:41.130Z,21.50
2022-10-12T09:19:14.277Z,21.30
2022-10-12T09:21:43.612Z,21.40
2022-10-12T09:24:14.856Z,21.40
2022-10-12T09:26:44.134Z,21.40
2022-10-12T09:29:24.146Z,21.50
2022-10-12T09:32:05.787Z,21.50
2022-10-12T09:34:34.191Z,21.60
2022-10-12T09:37:03.134Z,21.50
2022-10-12T09:39:32.624Z,21.50
2022-10-12T09:42:01.069Z,21.70
2022-10-12T09:44:33.117Z,21.60
2022-10-12T09:47:02.669Z,21.50
2022-10-12T09:49:40.902Z,21.50
2022-10-12T09:52:09.556Z,21.70
2022-10-12T09:54:40.796Z,21.60
2022-10-12T09:57:09.309Z,21.80
2022-10-12T09:59:40.778Z,21.60
2022-10-12T10:02:15.725Z,21.40
2022-10-12T10:04:44.870Z,21.40
2022-10-12T10:07:15.239Z,21.50
2022-10-12T10:09:44.200Z,21.50
2022-10-12T10:12:13.680Z,21.60
2022-10-12T10:14:45.270Z,21.40
2022-10-12T10:17:17.090Z,21.50
2022-10-12T10:19:50.138Z,21.50
2022-10-12T10:22:18.759Z,21.60
2022-10-12T10:24:51.251Z,21.40
2022-10-12T10:27:31.098Z,21.50
2022-10-12T10:30:40.630Z,21.60
2022-10-12T10:33:13.955Z,21.60
2022-10-12T10:35:44.098Z,21.60
2022-10-12T10:38:16.847Z,21.60
2022-10-12T10:40:51.121Z,21.60
2022-10-12T10:43:21.530Z,21.50
2022-10-12T10:45:52.852Z,21.50
2022-10-12T10:48:22.928Z,21.50
2022-10-12T10:50:52.828Z,21.30
2022-10-12T10:53:22.726Z,21.30
2022-10-12T10:55:53.732Z,21.60
2022-10-12T10:58:26.690Z,21.70
2022-10-12T11:00:58.513Z,21.70
2022-10-12T11:03:29.816Z,21.70
2022-10-12T11:06:01.527Z,21.80
2022-10-12T11:08:31.272Z,21.80
2022-10-12T11:11:02.299Z,21.80
2022-10-12T11:13:34.501Z,21.80
2022-10-12T11:16:09.519Z,21.60
2022-10-12T11:18:40.774Z,21.40
2022-10-12T11:21:12.831Z,21.50
2022-10-12T11:23:44.045Z,21.60
2022-10-12T11:26:19.390Z,21.50
2022-10-12T11:28:47.852Z,21.60
2022-10-12T11:31:21.291Z,21.50
2022-10-12T11:33:49.943Z,21.50
2022-10-12T11:36:20.627Z,21.70
2022-10-12T11:38:51.162Z,21.70
2022-10-12T11:41:36.555Z,21.60
2022-10-12T11:44:06.203Z,21.70
2022-10-12T11:46:38.035Z,21.60
2022-10-12T11:49:10.586Z,21.60
2022-10-12T11:51:38.936Z,21.40
2022-10-12T11:54:12.800Z,21.50
2022-10-12T11:56:43.465Z,21.40
2022-10-12T11:59:15.820Z,21.20
2022-10-12T12:01:48.123Z,21.20
2022-10-12T12:04:41.117Z,21.30
2022-10-12T12:07:25.196Z,21.20
2022-10-12T12:09:54.004Z,21.10
2022-10-12T12:12:24.094Z,21.10
2022-10-12T12:15:03.093Z,21.30
2022-10-12T12:17:33.801Z,21.30
2022-10-12T12:20:03.253Z,21.20
2022-10-12T12:22:33.023Z,21.40
2022-10-12T12:25:04.645Z,21.30
2022-10-12T12:27:35.039Z,21.30
2022-10-12T12:30:07.166Z,21.30
2022-10-12T12:32:45.178Z,21.30
2022-10-12T12:35:27.812Z,21.20
2022-10-12T12:38:02.656Z,21.20
2022-10-12T12:40:31.101Z,21.30
2022-10-12T12:43:17.892Z,21.20
2022-10-12T12:45:55.187Z,21.20
2022-10-12T12:48:41.856Z,21.30
2022-10-12T12:51:13.490Z,21.30
2022-10-12T12:53:45.001Z,21.30
2022-10-12T12:56:18.694Z,21.40
2022-10-12T12:59:01.671Z,21.50
2022-10-12T13:01:37.663Z,21.60
2022-10-12T13:04:17.011Z,21.50
2022-10-12T13:07:00.221Z,21.50
2022-10-12T13:09:38.712Z,21.50
2022-10-12T13:12:19.612Z,21.70
2022-10-12T13:15:04.521Z,21.60
2022-10-12T13:17:42.100Z,21.70
2022-10-12T13:20:16.794Z,21.70
2022-10-12T13:22:46.569Z,21.60
2022-10-12T13:25:23.157Z,21.70
2022-10-12T13:27:53.118Z,21.80
2022-10-12T13:30:24.674Z,21.70
2022-10-12T13:32:56.830Z,21.70
2022-10-12T13:35:29.988Z,21.50
2022-10-12T13:38:02.024Z,21.50
2022-10-12T13:40:33.455Z,21.60
2022-10-12T13:43:21.532Z,21.70
2022-10-12T13:45:50.355Z,21.70
2022-10-12T13:48:34.078Z,21.70
2022-10-12T13:51:27.671Z,21.80
2022-10-12T13:53:56.280Z,21.60
2022-10-12T13:56:27.378Z,21.60
2022-10-12T13:58:57.927Z,21.50
2022-10-12T14:01:26.711Z,21.40
2022-10-12T14:04:02.863Z,21.30
2022-10-12T14:06:32.415Z,21.20
2022-10-12T14:09:03.380Z,21.20
2022-10-12T14:11:33.433Z,21.10
2022-10-12T14:14:02.401Z,21.20
2022-10-12T14:16:30.858Z,21.20
2022-10-12T14:19:18.300Z,21.20
2022-10-12T14:21:48.004Z,21.20
2022-10-12T14:24:18.139Z,21.20
2022-10-12T14:26:53.577Z,21.30
2022-10-12T14:29:35.192Z,21.30
2022-10-12T14:32:04.760Z,21.30
2022-10-12T14:34:37.568Z,21.30
2022-10-12T14:37:06.937Z,21.30
2022-10-12T14:39:35.479Z,21.30
2022-10-12T14:42:06.113Z,21.30
2022-10-12T14:44:43.061Z,21.30
2022-10-12T14:47:16.797Z,21.30
2022-10-12T14:49:46.527Z,21.20
2022-10-12T14:52:18.783Z,21.10
2022-10-12T14:54:50.851Z,21.10
2022-10-12T14:57:21.080Z,21.10
2022-10-12T14:59:49.759Z,21.00
2022-10-12T15:02:19.227Z,21.00
2022-10-12T15:04:48.135Z,20.90
2022-10-12T15:07:17.265Z,20.80
2022-10-12T15:09:45.891Z,20.70
2022-10-12T15:12:15.194Z,20.90
2022-10-12T15:14:45.296Z,21.00
2022-10-12T15:17:14.441Z,20.90
2022-10-12T15:19:43.752Z,20.80
2022-10-12T15:22:13.242Z,20.70
2022-10-12T15:24:41.714Z,20.60
2022-10-12T15:27:10.683Z,20.60
2022-10-12T15:29:39.428Z,20.50
2022-10-12T15:32:11.258Z,20.40
2022-10-12T15:34:40.022Z,20.40
2022-10-12T15:37:09.425Z,20.40
2022-10-12T15:39:37.989Z,20.40
2022-10-12T15:42:06.413Z,20.40
2022-10-12T15:44:39.924Z,20.40
2022-10-12T15:47:11.446Z,20.30
2022-10-12T15:49:40.388Z,20.20
2022-10-12T15:52:10.916Z,20.30
2022-10-12T15:54:39.270Z,20.20
2022-10-12T15:57:07.721Z,20.20
2022-10-12T15:59:36.266Z,20.10
2022-10-12T16:02:04.809Z,20.10
2022-10-12T16:04:34.699Z,20.00
2022-10-12T16:07:03.192Z,20.10
2022-10-12T16:09:31.549Z,20.00
2022-10-12T16:12:00.017Z,20.00
2022-10-12T16:14:28.428Z,20.00
2022-10-12T16:16:56.769Z,20.00
2022-10-12T16:19:25.190Z,19.90
2022-10-12T16:21:54.952Z,19.90
2022-10-12T16:24:23.797Z,19.90
2022-10-12T16:26:52.218Z,19.80
2022-10-12T16:29:20.613Z,19.80
2022-10-12T16:31:48.998Z,19.80
2022-10-12T16:34:17.400Z,19.90
2022-10-12T16:36:45.733Z,19.90
2022-10-12T16:39:15.502Z,20.00
2022-10-12T16:41:43.975Z,20.00
2022-10-12T16:44:12.416Z,20.00
2022-10-12T16:46:40.824Z,20.00
2022-10-12T16:49:09.162Z,20.00
2022-10-12T16:51:37.574Z,19.90
2022-10-12T16:54:05.994Z,19.90
2022-10-12T16:56:39.222Z,19.80
2022-10-12T16:59:08.385Z,19.80
2022-10-12T17:01:36.830Z,19.90
2022-10-12T17:04:05.272Z,19.90
2022-10-12T17:06:33.765Z,20.00
2022-10-12T17:09:02.204Z,20.00
2022-10-12T17:11:30.588Z,20.00
2022-10-12T17:14:00.343Z,20.00
2022-10-12T17:16:46.109Z,20.00
2022-10-12T17:19:15.269Z,20.00
2022-10-12T17:21:43.807Z,20.00
2022-10-12T17:24:13.353Z,20.00
2022-10-12T17:26:41.779Z,20.00
2022-10-12T17:29:12.840Z,20.00
2022-10-12T17:31:41.285Z,20.00
2022-10-12T17:34:10.116Z,20.00
2022-10-12T17:36:38.629Z,20.00
2022-10-12T17:39:07.045Z,20.00
2022-10-12T17:41:35.486Z,20.00
2022-10-12T17:44:03.945Z,19.90
2022-10-12T17:46:33.733Z,19.90
2022-10-12T17:49:03.736Z,19.90
2022-10-12T17:51:32.195Z,19.90
2022-10-12T17:54:00.646Z,19.80
2022-10-12T17:56:29.131Z,19.80
2022-10-12T17:58:58.492Z,19.90
2022-10-12T18:01:27.295Z,19.90
2022-10-12T18:03:57.413Z,19.90
2022-10-12T18:06:25.888Z,19.90
2022-10-12T18:08:55.163Z,19.90
2022-10-12T18:11:23.896Z,19.90
2022-10-12T18:13:53.386Z,19.90
2022-10-12T18:16:22.316Z,19.90
2022-10-12T18:18:52.511Z,19.90
2022-10-12T18:21:23.084Z,19.90
2022-10-12T18:23:51.955Z,19.90
2022-10-12T18:26:22.143Z,19.90
2022-10-12T18:28:51.698Z,19.90
2022-10-12T18:31:21.473Z,19.90
2022-10-12T18:33:50.227Z,19.80
2022-10-12T18:36:19.087Z,19.90
2022-10-12T18:38:48.814Z,19.90
2022-10-12T18:41:18.285Z,19.90
2022-10-12T18:43:46.606Z,19.90
2022-10-12T18:46:16.990Z,19.90
2022-10-12T18:48:45.708Z,19.90
2022-10-12T18:51:17.312Z,19.90
2022-10-12T18:53:45.756Z,19.90
2022-10-12T18:56:15.567Z,19.90
2022-10-12T18:58:44.065Z,19.90
2022-10-12T19:01:13.137Z,19.90
2022-10-12T19:03:41.634Z,20.00
2022-10-12T19:06:11.687Z,19.90
2022-10-12T19:08:40.136Z,19.90
2022-10-12T19:11:09.322Z,19.90
2022-10-12T19:13:40.119Z,19.90
2022-10-12T19:16:09.455Z,19.80
2022-10-12T19:18:38.234Z,19.80
2022-10-12T19:21:07.367Z,19.80
2022-10-12T19:23:35.776Z,19.80
2022-10-12T19:26:05.416Z,19.80
2022-10-12T19:28:34.172Z,19.70
2022-10-12T19:31:08.417Z,19.70
2022-10-12T19:33:36.797Z,19.60
2022-10-12T19:36:05.609Z,19.60
2022-10-12T19:38:34.033Z,19.60
2022-10-12T19:41:02.466Z,19.60
2022-10-12T19:43:30.859Z,19.60
2022-10-12T19:46:03.747Z,19.50
2022-10-12T19:48:33.643Z,19.50
2022-10-12T19:51:03.197Z,19.50
2022-10-12T19:53:31.910Z,19.50
2022-10-12T19:56:00.692Z,19.50
2022-10-12T19:58:29.486Z,19.60
2022-10-12T20:01:01.841Z,19.60
2022-10-12T20:03:30.473Z,19.50
2022-10-12T20:06:00.350Z,19.40
2022-10-12T20:08:28.847Z,19.40
2022-10-12T20:10:57.188Z,19.40
2022-10-12T20:13:25.551Z,19.40
2022-10-12T20:15:54.099Z,19.40
2022-10-12T20:18:22.586Z,19.40
2022-10-12T20:20:51.050Z,19.40
2022-10-12T20:23:20.908Z,19.40
2022-10-12T20:25:50.388Z,19.40
2022-10-12T20:28:19.444Z,19.30
2022-10-12T20:30:48.241Z,19.30
2022-10-12T20:33:16.950Z,19.40
2022-10-12T20:35:48.759Z,19.40
2022-10-12T20:38:17.300Z,19.40
2022-10-12T20:40:47.133Z,19.40
2022-10-12T20:43:16.208Z,19.40
2022-10-12T20:45:44.668Z,19.40
2022-10-12T20:48:13.082Z,19.40
2022-10-12T20:50:41.530Z,19.40
2022-10-12T20:53:09.951Z,19.40
2022-10-12T20:55:39.995Z,19.40
2022-10-12T20:58:09.904Z,19.30
2022-10-12T21:00:38.401Z,19.30
2022-10-12T21:03:07.135Z,19.30
2022-10-12T21:05:35.964Z,19.30
2022-10-12T21:08:04.383Z,19.30
2022-10-12T21:10:36.750Z,19.30
2022-10-12T21:13:09.053Z,19.30
2022-10-12T21:15:37.480Z,19.30
2022-10-12T21:18:05.891Z,19.20
2022-10-12T21:20:34.296Z,19.20
2022-10-12T21:23:02.686Z,19.20
2022-10-12T21:25:31.096Z,19.20
2022-10-12T21:27:59.466Z,19.20
2022-10-12T21:30:29.317Z,19.20
2022-10-12T21:32:57.645Z,19.20
2022-10-12T21:35:26.079Z,19.20
2022-10-12T21:37:54.457Z,19.20
2022-10-12T21:40:23.188Z,19.10
2022-10-12T21:42:51.572Z,19.00
2022-10-12T21:45:20.026Z,19.00
2022-10-12T21:47:49.873Z,18.90
2022-10-12T21:50:18.327Z,18.80
2022-10-12T21:52:49.880Z,18.80
2022-10-12T21:55:18.781Z,18.80
2022-10-12T21:57:47.197Z,18.80
2022-10-12T22:00:16.020Z,18.80
2022-10-12T22:02:44.417Z,18.70
2022-10-12T22:05:14.245Z,18.60
2022-10-12T22:07:42.961Z,18.60
2022-10-12T22:10:12.042Z,18.60
2022-10-12T22:12:40.527Z,18.50
2022-10-12T22:15:09.531Z,18.60
2022-10-12T22:17:37.951Z,18.50
2022-10-12T22:20:06.661Z,18.50
2022-10-12T22:22:36.488Z,18.50
2022-10-12T22:25:05.200Z,18.50
2022-10-12T22:27:33.526Z,18.50
2022-10-12T22:30:01.888Z,18.50
2022-10-12T22:32:30.309Z,18.50
2022-10-12T22:34:59.236Z,18.60
2022-10-12T22:37:27.616Z,18.60
2022-10-12T22:39:57.397Z,18.60
2022-10-12T22:42:25.807Z,18.60
2022-10-12T22:44:54.219Z,18.60
2022-10-12T22:47:22.582Z,18.60
2022-10-12T22:49:50.941Z,18.60
2022-10-12T22:52:19.687Z,18.70
2022-10-12T22:54:49.985Z,18.70
2022-10-12T22:57:19.749Z,18.80
2022-10-12T22:59:48.148Z,18.80
2022-10-12T23:02:17.027Z,18.80
2022-10-12T23:04:45.872Z,18.80
2022-10-12T23:07:14.261Z,18.90
2022-10-12T23:09:44.431Z,18.90
2022-10-12T23:12:12.849Z,18.90
2022-10-12T23:14:43.485Z,18.90
2022-10-12T23:17:11.917Z,18.90
2022-10-12T23:19:40.605Z,19.00
2022-10-12T23:22:09.038Z,19.00
2022-10-12T23:24:37.457Z,19.00
2022-10-12T23:27:05.870Z,19.00
2022-10-12T23:29:34.252Z,19.00
2022-10-12T23:32:04.065Z,19.00
2022-10-12T23:34:32.491Z,19.00
2022-10-12T23:37:00.916Z,19.00
2022-10-12T23:39:29.298Z,19.00
2022-10-12T23:41:57.739Z,19.00
2022-10-12T23:44:26.226Z,19.00
2022-10-12T23:46:54.612Z,19.00
2022-10-12T23:49:24.400Z,19.00
2022-10-12T23:51:52.854Z,19.00
2022-10-12T23:54:21.300Z,19.00
2022-10-12T23:56:49.780Z,18.90
2022-10-12T23:59:18.140Z,18.90
